createdAt,value
2023-04-22T00:03:10.502Z,99037.25
2023-04-22T00:08:13.228Z,99045.84
2023-04-22T00:13:15.873Z,99042.47
2023-04-22T00:18:19.010Z,99027.13
2023-04-22T00:23:21.779Z,99057.06
2023-04-22T00:28:24.506Z,99064.78
2023-04-22T00:33:27.039Z,99058.88
2023-04-22T00:38:29.897Z,99054.63
2023-04-22T00:43:32.545Z,99058.03
2023-04-22T00:48:39.892Z,99053.81
2023-04-22T00:53:42.513Z,99060.72
2023-04-22T00:58:45.460Z,99063.34
2023-04-22T01:03:50.092Z,99041.09
2023-04-22T01:08:52.904Z,99052.19
2023-04-22T01:13:55.502Z,99055.63
2023-04-22T01:18:58.153Z,99045.34
2023-04-22T01:24:03.663Z,99047.91
2023-04-22T01:29:06.621Z,99029.97
2023-04-22T01:34:09.790Z,99033.38
2023-04-22T01:39:12.791Z,99047.06
2023-04-22T01:44:16.388Z,99053.91
2023-04-22T01:49:18.940Z,99040.22
2023-04-22T01:54:21.698Z,99037.66
2023-04-22T01:59:26.557Z,99048.81
2023-04-22T02:04:29.371Z,99043.69
2023-04-22T02:09:34.703Z,99047.94
2023-04-22T02:14:37.278Z,99041.13
2023-04-22T02:19:40.373Z,99038.38
2023-04-22T02:24:43.384Z,99013.75
2023-04-22T02:29:46.248Z,99031.97
2023-04-22T02:34:49.442Z,99015.88
2023-04-22T02:39:51.972Z,99028.22
2023-04-22T02:44:54.770Z,99024.50
2023-04-22T02:49:57.389Z,99035.47
2023-04-22T02:55:01.719Z,99016.03
2023-04-22T03:00:06.665Z,99000.00
2023-04-22T03:05:10.836Z,99035.44
2023-04-22T03:10:13.519Z,99041.84
2023-04-22T03:15:18.824Z,99037.09
2023-04-22T03:20:23.318Z,99047.78
2023-04-22T03:25:26.219Z,99052.59
2023-04-22T03:30:31.350Z,99042.59
2023-04-22T03:35:34.646Z,99060.94
2023-04-22T03:40:37.715Z,99063.59
2023-04-22T03:45:51.606Z,99040.19
2023-04-22T03:50:59.057Z,99059.16
2023-04-22T03:56:04.872Z,99076.69
2023-04-22T04:01:11.617Z,99069.00
2023-04-22T04:06:16.165Z,99075.72
2023-04-22T04:11:18.829Z,99080.03
2023-04-22T04:16:23.065Z,99074.81
2023-04-22T04:21:33.513Z,99084.97
2023-04-22T04:26:37.951Z,99086.38
2023-04-22T04:31:51.052Z,99077.69
2023-04-22T04:36:54.834Z,99061.16
2023-04-22T04:42:04.157Z,99065.81
2023-04-22T04:47:15.197Z,99083.53
2023-04-22T04:52:18.312Z,99084.91
2023-04-22T04:57:21.080Z,99087.94
2023-04-22T05:02:24.389Z,99079.75
2023-04-22T05:07:27.235Z,99078.19
2023-04-22T05:12:30.009Z,99082.03
2023-04-22T05:17:34.638Z,99089.44
2023-04-22T05:22:38.029Z,99094.13
2023-04-22T05:27:41.959Z,99095.38
2023-04-22T05:32:45.839Z,99090.78
2023-04-22T05:37:49.046Z,99090.13
2023-04-22T05:42:51.703Z,99084.38
2023-04-22T05:47:54.558Z,99081.34
2023-04-22T05:52:59.005Z,99074.91
2023-04-22T05:58:03.657Z,99095.06
2023-04-22T06:03:20.777Z,99089.63
2023-04-22T06:08:23.760Z,99091.44
2023-04-22T06:13:27.617Z,99092.03
2023-04-22T06:18:30.301Z,99061.91
2023-04-22T06:23:32.968Z,99082.47
2023-04-22T06:28:35.619Z,99073.81
2023-04-22T06:33:43.367Z,99094.50
2023-04-22T06:38:46.078Z,99082.78
2023-04-22T06:44:07.122Z,99081.88
2023-04-22T06:49:39.734Z,99080.31
2023-04-22T06:55:09.074Z,99082.31
2023-04-22T07:00:12.457Z,99061.41
2023-04-22T07:05:17.226Z,99080.66
2023-04-22T07:10:21.245Z,99106.19
2023-04-22T07:15:46.256Z,99059.13
2023-04-22T07:20:48.930Z,99070.78
2023-04-22T07:25:51.540Z,99060.97
2023-04-22T07:30:54.600Z,99079.78
2023-04-22T07:35:57.285Z,99082.06
2023-04-22T07:40:59.851Z,99071.41
2023-04-22T07:46:02.868Z,99070.25
2023-04-22T07:51:06.101Z,99081.38
2023-04-22T07:56:09.189Z,99084.81
2023-04-22T08:01:11.743Z,99073.88
2023-04-22T08:06:14.554Z,99087.59
2023-04-22T08:11:17.159Z,99075.63
2023-04-22T08:16:19.955Z,99059.38
2023-04-22T08:21:22.534Z,99030.78
2023-04-22T08:26:25.860Z,99066.13
2023-04-22T08:31:28.525Z,99068.06
2023-04-22T08:36:32.056Z,99072.69
2023-04-22T08:41:35.906Z,99064.81
2023-04-22T08:46:39.527Z,99074.69
2023-04-22T08:51:43.631Z,99062.94
2023-04-22T08:56:46.293Z,99084.72
2023-04-22T09:01:53.364Z,99059.63
2023-04-22T09:06:56.842Z,99074.19
2023-04-22T09:11:59.448Z,99063.63
2023-04-22T09:17:03.876Z,99047.75
2023-04-22T09:22:10.643Z,99060.75
2023-04-22T09:27:13.507Z,99049.97
2023-04-22T09:32:17.193Z,99040.72
2023-04-22T09:37:33.071Z,99035.44
2023-04-22T09:42:49.813Z,99034.47
2023-04-22T09:47:52.571Z,99044.41
2023-04-22T09:53:18.961Z,99036.56
2023-04-22T09:58:23.991Z,99031.53
2023-04-22T10:03:26.837Z,99049.91
2023-04-22T10:08:30.745Z,99066.28
2023-04-22T10:13:33.421Z,99045.59
2023-04-22T10:18:39.428Z,99043.84
2023-04-22T10:23:49.977Z,99032.84
2023-04-22T10:28:52.624Z,99020.41
2023-04-22T10:34:11.149Z,99033.03
2023-04-22T10:39:17.722Z,99027.56
2023-04-22T10:44:22.611Z,99032.31
2023-04-22T10:49:29.229Z,99024.63
2023-04-22T10:54:36.512Z,99029.59
2023-04-22T10:59:56.347Z,99039.47
2023-04-22T11:05:22.870Z,99025.31
2023-04-22T11:10:42.970Z,99014.84
2023-04-22T11:15:51.529Z,99023.81
2023-04-22T11:20:54.723Z,99034.19
2023-04-22T11:25:59.720Z,99006.84
2023-04-22T11:31:04.227Z,99023.81
2023-04-22T11:36:15.775Z,99016.28
2023-04-22T11:41:23.261Z,99018.03
2023-04-22T11:46:38.444Z,99032.97
2023-04-22T11:51:57.326Z,98986.00
2023-04-22T11:57:08.612Z,99004.50
2023-04-22T12:02:11.509Z,99002.09
2023-04-22T12:07:15.491Z,98987.38
2023-04-22T12:12:18.146Z,99007.44
2023-04-22T12:17:24.770Z,98980.50
2023-04-22T12:22:29.713Z,98998.75
2023-04-22T12:27:32.351Z,98975.97
2023-04-22T12:32:35.000Z,98987.66
2023-04-22T12:37:37.613Z,98987.09
2023-04-22T12:42:40.220Z,98960.41
2023-04-22T12:47:43.125Z,98984.53
2023-04-22T12:52:46.262Z,98987.91
2023-04-22T12:57:51.464Z,98983.78
2023-04-22T13:02:57.288Z,98981.81
2023-04-22T13:08:07.219Z,98990.31
2023-04-22T13:13:18.388Z,98999.97
2023-04-22T13:18:23.523Z,99006.75
2023-04-22T13:23:27.048Z,99003.59
2023-04-22T13:28:31.030Z,98986.41
2023-04-22T13:33:33.543Z,98984.72
2023-04-22T13:38:36.634Z,98985.88
2023-04-22T13:43:39.171Z,98991.94
2023-04-22T13:48:41.663Z,98997.16
2023-04-22T13:53:44.332Z,99005.69
2023-04-22T13:58:47.015Z,99006.09
2023-04-22T14:03:49.845Z,99011.00
2023-04-22T14:08:52.919Z,99016.47
2023-04-22T14:13:55.724Z,98995.09
2023-04-22T14:18:58.431Z,99000.16
2023-04-22T14:24:01.015Z,99009.63
2023-04-22T14:29:03.918Z,98998.47
2023-04-22T14:34:06.518Z,99014.75
2023-04-22T14:39:09.325Z,99030.72
2023-04-22T14:44:14.470Z,99020.53
2023-04-22T14:49:17.049Z,99022.63
2023-04-22T14:54:19.637Z,99036.88
2023-04-22T14:59:22.612Z,99035.91
2023-04-22T15:04:25.383Z,99036.41
2023-04-22T15:09:28.035Z,99043.91
2023-04-22T15:14:32.269Z,99041.50
2023-04-22T15:19:35.066Z,99042.47
2023-04-22T15:24:37.778Z,99033.69
2023-04-22T15:29:45.010Z,99022.56
2023-04-22T15:34:47.759Z,99034.41
2023-04-22T15:39:50.472Z,99042.06
2023-04-22T15:44:53.088Z,99040.47
2023-04-22T15:49:57.808Z,99054.19
2023-04-22T15:55:03.616Z,99054.38
2023-04-22T16:00:13.094Z,99053.94
2023-04-22T16:05:18.191Z,99014.59
2023-04-22T16:10:21.336Z,99049.31
2023-04-22T16:15:26.262Z,99053.09
2023-04-22T16:20:29.620Z,99047.50
2023-04-22T16:25:32.364Z,99021.56
2023-04-22T16:30:35.048Z,99049.38
2023-04-22T16:35:37.732Z,99006.41
2023-04-22T16:40:40.378Z,99059.59
2023-04-22T16:45:42.962Z,99061.06
2023-04-22T16:50:45.625Z,99077.03
2023-04-22T16:55:48.191Z,99076.63
2023-04-22T17:00:51.246Z,99073.66
2023-04-22T17:05:54.114Z,99080.25
2023-04-22T17:10:56.758Z,99084.38
2023-04-22T17:15:59.507Z,99091.41
2023-04-22T17:21:02.171Z,99093.22
2023-04-22T17:26:04.954Z,99100.81
2023-04-22T17:31:08.050Z,99103.78
2023-04-22T17:36:11.364Z,99103.53
2023-04-22T17:41:14.036Z,99100.47
2023-04-22T17:46:16.683Z,99127.31
2023-04-22T17:51:19.341Z,99135.44
2023-04-22T17:56:22.242Z,99114.06
2023-04-22T18:01:25.696Z,99131.56
2023-04-22T18:06:29.176Z,99143.19
2023-04-22T18:11:32.431Z,99128.00
2023-04-22T18:16:35.226Z,99137.59
2023-04-22T18:21:41.613Z,99149.91
2023-04-22T18:26:49.478Z,99145.09
2023-04-22T18:31:52.232Z,99140.09
2023-04-22T18:36:55.362Z,99146.06
2023-04-22T18:41:57.923Z,99151.41
2023-04-22T18:47:00.578Z,99149.78
2023-04-22T18:52:03.307Z,99150.78
2023-04-22T18:57:06.114Z,99151.78
2023-04-22T19:02:13.022Z,99066.41
2023-04-22T19:07:15.853Z,99140.03
2023-04-22T19:12:19.709Z,99164.06
2023-04-22T19:17:22.406Z,99173.69
2023-04-22T19:22:25.311Z,99152.41
2023-04-22T19:27:28.030Z,99164.56
2023-04-22T19:32:31.315Z,99145.09
2023-04-22T19:37:34.170Z,99182.72
2023-04-22T19:42:36.856Z,99185.38
2023-04-22T19:47:39.923Z,99189.88
2023-04-22T19:52:47.728Z,99193.47
2023-04-22T19:57:51.518Z,99185.81
2023-04-22T20:02:54.451Z,99168.81
2023-04-22T20:08:01.356Z,99196.16
2023-04-22T20:13:07.474Z,99187.72
2023-04-22T20:18:12.479Z,99203.94
2023-04-22T20:23:17.609Z,99202.28
2023-04-22T20:28:31.674Z,99201.53
2023-04-22T20:33:35.833Z,99202.66
2023-04-22T20:38:38.781Z,99210.47
2023-04-22T20:43:45.007Z,99198.47
2023-04-22T20:48:48.001Z,99197.56
2023-04-22T20:53:51.420Z,99206.97
2023-04-22T20:58:54.096Z,99215.63
2023-04-22T21:04:00.059Z,99214.91
2023-04-22T21:09:04.235Z,99218.44
2023-04-22T21:14:07.761Z,99219.25
2023-04-22T21:19:12.376Z,99213.31
2023-04-22T21:24:15.854Z,99221.94
2023-04-22T21:29:19.194Z,99229.69
2023-04-22T21:34:22.237Z,99196.19
2023-04-22T21:39:24.956Z,99226.97
2023-04-22T21:44:28.496Z,99232.09
2023-04-22T21:49:31.911Z,99192.75
2023-04-22T21:54:34.607Z,99230.53
2023-04-22T21:59:38.025Z,99241.72
2023-04-22T22:04:42.717Z,99244.38
2023-04-22T22:09:46.784Z,99251.38
2023-04-22T22:14:49.312Z,99250.59
2023-04-22T22:19:52.231Z,99266.13
2023-04-22T22:24:54.835Z,99258.44
2023-04-22T22:29:57.483Z,99269.72
2023-04-22T22:35:00.193Z,99273.16
2023-04-22T22:40:03.246Z,99256.03
2023-04-22T22:45:06.849Z,99270.66
2023-04-22T22:50:09.667Z,99262.09
2023-04-22T22:55:12.172Z,99268.03
2023-04-22T23:00:15.133Z,99261.19
2023-04-22T23:05:17.850Z,99274.13
2023-04-22T23:10:20.960Z,99276.72
2023-04-22T23:15:23.675Z,99279.31
2023-04-22T23:20:27.367Z,99270.72
2023-04-22T23:25:30.324Z,99272.47
2023-04-22T23:30:33.290Z,99281.91
2023-04-22T23:35:37.792Z,99284.44
2023-04-22T23:40:40.432Z,99293.94
2023-04-22T23:45:43.252Z,99281.03
2023-04-22T23:50:45.965Z,99296.50
2023-04-22T23:55:48.873Z,99293.03
